Cameron Corners (448, 449, 6923) Station Data

Red Flag Warning: No
Fire Weather Zone: 258
SDGE Region: Mountain Empire
Lat/Lon: 32.646/-116.497

Observations

Time Wind Speed/Gust Temp(F) RH Fuel Moist Fuel Temp(F) Dewpt(F) Tmax(F) Tmin(F) Accum Precip 10-min Precip SL Press(mb)
5/24 8:30am 108 4 G 7 72° 28% - - 37° 72.2° 52.6° - - 869.0
5/24 8:20am 76 2 G 4 71° 29% - - 37° 71.9° 52.6° - - 869.0
5/24 8:10am 161 1 G 3 70° 27% - - 35° 71.4° 52.6° - - 868.0
5/24 8:00am 57 0 G 1 69° 28% - - 35° 70° 52.6° - - 869.0
5/24 7:50am 100 1 G 4 69° 28% - - 35° 69.9° 52.6° - - 868.0
5/24 7:40am 349 1 G 3 69° 27% - - 33° 69.3° 52.6° - - 868.0
5/24 7:30am 93 1 G 3 66° 29% - - 33° 68.9° 52.6° - - 868.0
5/24 7:20am 11 2 G 4 63° 33% - - 33° 64.3° 52.6° - - 869.0
5/24 7:10am 359 2 G 4 62° 33% - - 32° 62.8° 52.6° - - 869.0
5/24 7:00am 15 1 G 3 61° 34% - - 32° 61.3° 52.6° - - 869.0
5/24 6:50am 189 1 G 4 58° 39% - - 33° 60.2° 52.6° - - 870.0
5/24 6:40am 210 3 G 5 59° 37% - - 33° 60° 52.6° - - 870.0
5/24 6:30am 31 4 G 6 60° 33% - - 31° 60° 52.6° - - 868.0
5/24 6:20am 355 4 G 9 60° 34% - - 31° 60° 52.6° - - 869.0
5/24 6:10am 358 4 G 8 59° 34% - - 31° 60° 52.6° - - 869.0
5/24 6:00am 5 6 G 8 57° 36% - - 31° 60° 52.6° - - 869.0
5/24 5:50am 11 7 G 10 56° 38% - - 31° 60° 52.6° - - 870.0
5/24 5:40am 1 5 G 9 55° 42% - - 32° 60° 52.6° - - 871.0
5/24 5:30am 9 5 G 8 54° 45% - - 33° 60° 52.6° - - 872.0
5/24 5:20am 10 8 G 11 54° 45% - - 34° 60° 52.6° - - 872.0
5/24 5:10am 0 6 G 9 55° 45% - - 34° 60° 52.6° - - 872.0
5/24 5:00am 7 6 G 10 56° 46% - - 35° 60° 52.6° - - 872.0
5/24 4:50am 356 4 G 9 55° 46% - - 35° 60° 52.6° - - 872.0
5/24 4:40am 351 4 G 5 54° 49% - - 36° 60° 52.6° - - 874.0
5/24 4:30am 353 3 G 5 54° 54% - - 37° 60° 52.6° - - 876.0
5/24 4:20am 0 4 G 6 53° 55% - - 37° 60° 52.6° - - 876.0
5/24 4:10am 10 4 G 6 53° 57% - - 38° 60° 52.6° - - 877.0
5/24 4:00am 352 4 G 7 54° 56% - - 38° 60° 52.7° - - 876.0
5/24 3:50am 352 5 G 8 55° 55% - - 39° 60° 52.7° - - 876.0
5/24 3:40am 4 6 G 8 54° 55% - - 39° 60° 52.7° - - 876.0
5/24 3:30am 14 5 G 8 54° 55% - - 38° 60° 52.7° - - 876.0
5/24 3:20am 359 5 G 6 55° 51% - - 37° 60° 54.1° - - 875.0
5/24 3:10am 351 4 G 6 54° 53% - - 38° 60° 54.1° - - 876.0
5/24 3:00am 327 3 G 6 55° 52% - - 38° 60° 54.3° - - 875.0
5/24 2:50am 353 3 G 6 56° 51% - - 38° 60° 54.3° - - 875.0
5/24 2:40am 4 5 G 7 55° 55% - - 39° 60° 54.3° - - 876.0
5/24 2:30am 357 4 G 6 55° 53% - - 39° 60° 55° - - 876.0
5/24 2:20am 344 4 G 6 56° 53% - - 39° 60° 55.1° - - 876.0
5/24 2:10am 358 4 G 6 56° 56% - - 40° 60° 55.1° - - 877.0
5/24 2:00am 4 3 G 6 56° 57% - - 41° 60° 55.1° - - 877.0
5/24 1:50am 2 4 G 6 56° 61% - - 42° 60° 55.1° - - 879.0
5/24 1:40am 6 3 G 4 56° 62% - - 44° 60° 55.5° - - 879.0
5/24 1:30am 348 2 G 5 58° 60% - - 44° 60° 57° - - 879.0
5/24 1:20am 4 4 G 7 59° 59% - - 45° 60° 57.2° - - 879.0
5/24 1:10am 4 5 G 8 60° 57% - - 44° 60° 57.2° - - 878.0
5/24 1:00am 3 4 G 8 59° 58% - - 44° 60° 57.2° - - 878.0
5/24 12:50am 347 4 G 6 58° 62% - - 45° 59.6° 57.2° - - 880.0
5/24 12:40am 346 4 G 6 58° 64% - - 46° 59.6° 57.2° - - 880.0
5/24 12:30am 350 3 G 5 58° 63% - - 46° 59.6° 57.5° - - 880.0
5/24 12:20am 2 4 G 6 58° 61% - - 45° 59.6° 57.8° - - 880.0
5/24 12:10am 354 4 G 6 58° 61% - - 45° 59.6° 57.8° - - 880.0
5/24 12:00am 360 5 G 7 59° 62% - - 46° 93.9° 54.6° - - 880.0
5/23 11:50pm 358 4 G 5 59° 63% - - 47° 93.9° 54.6° - - 881.0
5/23 11:40pm 356 4 G 7 59° 65% - - 47° 93.9° 54.6° - - 882.0
5/23 11:30pm 1 5 G 6 59° 68% - - 48° 93.9° 54.6° - - 883.0
5/23 11:20pm 3 5 G 7 59° 68% - - 49° 93.9° 54.6° - - 882.0
5/23 11:10pm 4 5 G 6 60° 66% - - 49° 93.9° 54.6° - - 882.0
5/23 11:00pm 357 4 G 5 61° 65% - - 49° 93.9° 54.6° - - 882.0
5/23 10:50pm 5 5 G 6 61° 65% - - 49° 93.9° 54.6° - - 882.0
5/23 10:40pm 354 3 G 5 61° 64% - - 49° 93.9° 54.6° - - 881.0
5/23 10:30pm 351 3 G 4 62° 63% - - 49° 93.9° 54.6° - - 881.0
5/23 10:20pm 358 4 G 5 62° 62% - - 49° 93.9° 54.6° - - 881.0
5/23 10:10pm 0 4 G 5 63° 61% - - 49° 93.9° 54.6° - - 881.0
5/23 10:00pm 360 3 G 4 64° 60% - - 50° 93.9° 54.6° - - 881.0
5/23 9:50pm 358 2 G 4 65° 58% - - 50° 93.9° 54.6° - - 880.0
5/23 9:40pm 3 2 G 4 68° 56% - - 51° 93.9° 54.6° - - 880.0
5/23 9:30pm 349 1 G 3 68° 55% - - 51° 93.9° 54.6° - - 880.0
5/23 9:20pm 338 2 G 6 68° 54% - - 51° 93.9° 54.6° - - 879.0
5/23 9:10pm 309 6 G 9 69° 53% - - 51° 93.9° 54.6° - - 879.0
5/23 9:00pm 299 6 G 8 69° 52% - - 51° 93.9° 54.6° - - 879.0
5/23 8:50pm 281 5 G 6 70° 51% - - 51° 93.9° 54.6° - - 878.0
5/23 8:40pm 306 3 G 5 70° 51% - - 51° 93.9° 54.6° - - 879.0
5/23 8:30pm 259 3 G 6 71° 49% - - 51° 93.9° 54.6° - - 878.0
5/23 8:20pm 283 2 G 5 72° 48% - - 51° 93.9° 54.6° - - 878.0
5/23 8:10pm 125 1 G 2 72° 48% - - 51° 93.9° 54.6° - - 878.0
5/23 8:00pm 83 2 G 3 73° 47% - - 51° 93.9° 54.6° - - 878.0
5/23 7:50pm 301 3 G 6 74° 44% - - 51° 93.9° 54.6° - - 877.0
5/23 7:40pm 298 7 G 13 75° 42% - - 50° 93.9° 54.6° - - 877.0
5/23 7:30pm 297 10 G 14 77° 39% - - 50° 93.9° 54.6° - - 876.0
5/23 7:20pm 294 10 G 13 78° 37% - - 49° 93.9° 54.6° - - 875.0
5/23 7:10pm 292 9 G 14 79° 35% - - 49° 93.9° 54.6° - - 875.0
5/23 7:00pm 294 9 G 12 80° 34% - - 49° 93.9° 54.6° - - 875.0
5/23 6:50pm 296 10 G 14 80° 33% - - 48° 93.9° 54.6° - - 875.0
5/23 6:40pm 295 11 G 15 81° 31% - - 47° 93.9° 54.6° - - 874.0
5/23 6:30pm 290 10 G 15 83° 27% - - 45° 93.9° 54.6° - - 874.0
5/23 6:20pm 273 6 G 11 83° 24% - - 42° 93.9° 54.6° - - 872.0
5/23 6:10pm 272 7 G 12 84° 23% - - 42° 93.9° 54.6° - - 872.0
5/23 6:00pm 278 8 G 13 84° 23% - - 42° 93.9° 54.6° - - 872.0
5/23 5:50pm 284 10 G 14 84° 23% - - 42° 93.9° 54.6° - - 872.0
5/23 5:40pm 290 11 G 14 84° 22% - - 41° 93.9° 54.6° - - 872.0
5/23 5:30pm 291 12 G 15 84° 22% - - 41° 93.9° 54.6° - - 872.0
5/23 5:20pm 298 11 G 16 84° 22% - - 41° 93.9° 54.6° - - 872.0
5/23 5:10pm 292 13 G 17 84° 22% - - 40° 93.9° 54.6° - - 872.0
5/23 5:00pm 289 13 G 17 84° 21% - - 40° 93.9° 54.6° - - 872.0
5/23 4:50pm 289 13 G 19 84° 21% - - 39° 93.9° 54.6° - - 872.0
5/23 4:40pm 290 14 G 18 84° 21% - - 40° 93.9° 54.6° - - 872.0
5/23 4:30pm 299 15 G 19 84° 23% - - 42° 93.9° 54.6° - - 873.0
5/23 4:20pm 305 14 G 20 84° 26% - - 46° 93.9° 54.6° - - 874.0
5/23 4:10pm 300 15 G 20 84° 28% - - 47° 93.9° 54.6° - - 875.0
5/23 4:00pm 296 16 G 23 84° 29% - - 49° 93.9° 54.6° - - 875.0
5/23 3:50pm 295 17 G 24 84° 31% - - 50° 93.9° 54.6° - - 876.0
5/23 3:40pm 295 16 G 21 85° 31% - - 51° 93.9° 54.6° - - 876.0
5/23 3:30pm 283 15 G 20 86° 30% - - 51° 93.9° 54.6° - - 876.0
5/23 3:20pm 281 14 G 22 86° 28% - - 49° 93.9° 54.6° - - 876.0
5/23 3:10pm 283 13 G 20 87° 26% - - 48° 93.9° 54.6° - - 875.0
5/23 3:00pm 288 15 G 22 88° 22% - - 44° 93.9° 54.6° - - 874.0
5/23 2:50pm 296 13 G 19 88° 18% - - 40° 93.9° 54.6° - - 873.0
5/23 2:40pm 286 13 G 22 88° 20% - - 42° 93.9° 54.6° - - 873.0
5/23 2:30pm 269 12 G 20 88° 17% - - 37° 93.9° 54.6° - - 873.0
5/23 2:20pm 281 13 G 20 88° 20% - - 42° 93.9° 54.6° - - 874.0
5/23 2:10pm 280 12 G 19 89° 18% - - 40° 93.9° 54.6° - - 873.0
5/23 2:00pm 277 11 G 17 90° 15% - - 37° 93.9° 54.6° - - 873.0
5/23 1:50pm 276 12 G 18 90° 13% - - 33° 93.9° 54.6° - - 872.0
5/23 1:40pm 277 11 G 18 90° 13% - - 32° 93.9° 54.6° - - 872.0
5/23 1:30pm 270 11 G 17 90° 14% - - 35° 93.9° 54.6° - - 872.0
5/23 1:20pm 283 14 G 20 90° 17% - - 40° 93.9° 54.6° - - 873.0
5/23 1:10pm 258 9 G 16 91° 13% - - 34° 93.9° 54.6° - - 872.0
5/23 1:00pm 269 11 G 19 91° 15% - - 36° 93.9° 54.6° - - 873.0
5/23 12:50pm 248 7 G 12 92° 12% - - 31° 93.9° 54.6° - - 872.0
5/23 12:40pm 263 9 G 18 92° 12% - - 31° 93.9° 54.6° - - 872.0
5/23 12:30pm 244 7 G 17 92° 12% - - 31° 93.9° 54.6° - - 872.0
5/23 12:20pm 211 6 G 13 93° 10% - - 29° 93.9° 54.6° - - 871.0
5/23 12:10pm 207 3 G 9 92° 9% - - 26° 93.2° 54.6° - - 870.0
5/23 12:00pm 231 4 G 9 92° 9% - - 25° 93° 54.6° - - 870.0
5/23 11:50am 257 3 G 8 92° 9% - - 25° 92.5° 54.6° - - 870.0
5/23 11:40am 142 5 G 10 92° 9% - - 25° 92.5° 54.6° - - 870.0
5/23 11:30am 350 5 G 8 91° 9% - - 24° 92.5° 54.6° - - 870.0
5/23 11:20am 199 4 G 9 91° 9% - - 25° 92.5° 54.6° - - 870.0
5/23 11:10am 179 4 G 10 92° 9% - - 24° 92.5° 54.6° - - 869.0
5/23 11:00am 214 4 G 8 91° 9% - - 23° 91.2° 54.6° - - 869.0
5/23 10:50am 254 4 G 10 90° 10% - - 27° 91.2° 54.6° - - 869.0
5/23 10:40am 209 2 G 7 90° 12% - - 31° 91.2° 54.6° - - 870.0
5/23 10:30am 199 2 G 6 89° 14% - - 33° 89.2° 54.6° - - 870.0
5/23 10:20am 172 3 G 7 88° 14% - - 33° 88.7° 54.6° - - 869.0
5/23 10:10am 82 2 G 5 87° 14% - - 33° 88° 54.6° - - 869.0
5/23 10:00am 82 1 G 3 87° 14% - - 33° 87.6° 54.6° - - 869.0
5/23 9:50am 93 2 G 4 85° 15% - - 33° 86.1° 54.6° - - 868.0
5/23 9:40am 113 1 G 3 85° 16% - - 33° 85.3° 54.6° - - 868.0
5/23 9:30am 104 1 G 3 83° 16% - - 33° 84.1° 54.6° - - 868.0
5/23 9:20am 94 2 G 4 82° 17% - - 34° 82.8° 54.6° - - 868.0
5/23 9:10am 126 2 G 4 81° 19% - - 34° 81.3° 54.6° - - 868.0
5/23 9:00am 123 1 G 3 80° 19% - - 34° 80.5° 54.6° - - 868.0
5/23 8:50am 130 2 G 4 78° 20% - - 34° 78.8° 54.6° - - 868.0
5/23 8:40am 121 2 G 4 77° 21% - - 34° 77.8° 54.6° - - 868.0
5/23 8:30am 112 3 G 5 76° 23% - - 35° 76.3° 54.6° - - 868.0
5/23 8:20am 124 3 G 4 75° 23% - - 35° 75.6° 54.6° - - 868.0
5/23 8:10am 136 2 G 3 74° 25% - - 36° 75.1° 54.6° - - 869.0
5/23 8:00am 119 2 G 3 72° 28% - - 37° 72.9° 54.6° - - 869.0
5/23 7:50am 141 1 G 3 71° 30% - - 38° 71.6° 54.6° - - 870.0
5/23 7:40am 168 3 G 5 70° 31% - - 38° 71.6° 54.6° - - 870.0
5/23 7:30am 105 2 G 5 71° 30% - - 38° 71.6° 54.6° - - 870.0
5/23 7:20am 10 5 G 8 70° 27% - - 34° 70.6° 54.6° - - 868.0
5/23 7:10am 7 5 G 8 67° 28% - - 33° 68.2° 54.6° - - 868.0
5/23 7:00am 25 8 G 11 67° 27% - - 32° 68° 54.6° - - 867.0
5/23 6:50am 359 7 G 11 65° 29% - - 31° 67° 54.6° - - 868.0
5/23 6:40am 346 4 G 9 62° 33% - - 32° 63.1° 54.6° - - 869.0
5/23 6:30am 8 2 G 5 62° 33% - - 32° 62.5° 54.6° - - 869.0
5/23 6:20am 336 4 G 6 60° 35% - - 32° 62.5° 54.6° - - 869.0
5/23 6:10am 341 4 G 7 60° 33% - - 32° 62.5° 54.6° - - 868.0
5/23 6:00am 355 4 G 8 60° 33% - - 31° 62.5° 54.6° - - 868.0